sensor_id;sensor_type;location;lat;lon;timestamp;P1;durP1;ratioP1;P2;durP2;ratioP2
64842;SDS011;51310;52.198;5.422;2024-03-23T00:55:14;21.60;;;8.00;;
64842;SDS011;51310;52.198;5.422;2024-03-23T00:57:40;23.92;;;7.40;;
64842;SDS011;51310;52.198;5.422;2024-03-23T01:00:06;30.60;;;7.90;;
64842;SDS011;51310;52.198;5.422;2024-03-23T01:02:35;36.95;;;8.82;;
64842;SDS011;51310;52.198;5.422;2024-03-23T01:05:01;26.23;;;7.97;;
64842;SDS011;51310;52.198;5.422;2024-03-23T01:07:27;40.55;;;8.73;;
64842;SDS011;51310;52.198;5.422;2024-03-23T01:09:53;19.17;;;7.78;;
64842;SDS011;51310;52.198;5.422;2024-03-23T01:12:19;35.45;;;8.73;;
64842;SDS011;51310;52.198;5.422;2024-03-23T01:14:45;35.28;;;7.47;;
64842;SDS011;51310;52.198;5.422;2024-03-23T01:17:11;32.97;;;7.32;;
64842;SDS011;51310;52.198;5.422;2024-03-23T01:19:37;26.08;;;6.55;;
64842;SDS011;51310;52.198;5.422;2024-03-23T01:22:04;26.08;;;7.60;;
64842;SDS011;51310;52.198;5.422;2024-03-23T01:24:30;25.00;;;7.93;;
64842;SDS011;51310;52.198;5.422;2024-03-23T01:26:56;34.75;;;8.68;;
64842;SDS011;51310;52.198;5.422;2024-03-23T01:29:21;26.65;;;7.78;;
64842;SDS011;51310;52.198;5.422;2024-03-23T01:31:47;27.80;;;7.35;;
64842;SDS011;51310;52.198;5.422;2024-03-23T01:34:13;33.08;;;7.88;;
64842;SDS011;51310;52.198;5.422;2024-03-23T01:36:39;33.75;;;8.77;;
64842;SDS011;51310;52.198;5.422;2024-03-23T01:39:05;27.95;;;7.50;;
64842;SDS011;51310;52.198;5.422;2024-03-23T01:41:34;38.00;;;8.27;;
64842;SDS011;51310;52.198;5.422;2024-03-23T01:44:03;34.72;;;10.32;;
64842;SDS011;51310;52.198;5.422;2024-03-23T01:46:34;24.10;;;10.80;;
64842;SDS011;51310;52.198;5.422;2024-03-23T01:49:06;42.92;;;9.00;;
64842;SDS011;51310;52.198;5.422;2024-03-23T01:51:33;22.20;;;7.97;;
64842;SDS011;51310;52.198;5.422;2024-03-23T01:54:04;20.58;;;7.82;;
64842;SDS011;51310;52.198;5.422;2024-03-23T01:56:34;32.70;;;8.30;;
64842;SDS011;51310;52.198;5.422;2024-03-23T01:59:04;25.25;;;8.90;;
64842;SDS011;51310;52.198;5.422;2024-03-23T02:01:31;35.42;;;9.73;;
64842;SDS011;51310;52.198;5.422;2024-03-23T02:04:00;20.30;;;7.97;;
64842;SDS011;51310;52.198;5.422;2024-03-23T02:06:26;32.83;;;9.43;;
64842;SDS011;51310;52.198;5.422;2024-03-23T02:08:53;28.08;;;8.70;;
64842;SDS011;51310;52.198;5.422;2024-03-23T02:11:20;33.03;;;8.30;;
64842;SDS011;51310;52.198;5.422;2024-03-23T02:13:46;41.90;;;9.35;;
64842;SDS011;51310;52.198;5.422;2024-03-23T02:16:11;26.17;;;8.73;;
64842;SDS011;51310;52.198;5.422;2024-03-23T02:18:38;37.40;;;9.35;;
64842;SDS011;51310;52.198;5.422;2024-03-23T02:21:04;25.65;;;8.15;;
64842;SDS011;51310;52.198;5.422;2024-03-23T02:23:30;24.92;;;7.35;;
64842;SDS011;51310;52.198;5.422;2024-03-23T02:25:56;30.05;;;7.88;;
64842;SDS011;51310;52.198;5.422;2024-03-23T02:28:22;41.88;;;11.13;;
64842;SDS011;51310;52.198;5.422;2024-03-23T02:30:48;25.95;;;9.13;;
64842;SDS011;51310;52.198;5.422;2024-03-23T02:33:15;22.40;;;8.38;;
64842;SDS011;51310;52.198;5.422;2024-03-23T02:35:42;17.45;;;6.70;;
64842;SDS011;51310;52.198;5.422;2024-03-23T02:38:11;33.42;;;8.15;;
64842;SDS011;51310;52.198;5.422;2024-03-23T02:40:37;27.77;;;8.68;;
64842;SDS011;51310;52.198;5.422;2024-03-23T02:43:03;42.85;;;7.45;;
64842;SDS011;51310;52.198;5.422;2024-03-23T02:45:30;36.55;;;7.80;;
64842;SDS011;51310;52.198;5.422;2024-03-23T02:47:56;29.33;;;6.95;;
64842;SDS011;51310;52.198;5.422;2024-03-23T02:50:22;19.20;;;7.10;;
64842;SDS011;51310;52.198;5.422;2024-03-23T02:52:48;23.85;;;7.63;;
64842;SDS011;51310;52.198;5.422;2024-03-23T02:55:14;24.95;;;6.70;;
64842;SDS011;51310;52.198;5.422;2024-03-23T02:57:40;26.88;;;7.28;;
64842;SDS011;51310;52.198;5.422;2024-03-23T03:00:07;23.13;;;8.00;;
64842;SDS011;51310;52.198;5.422;2024-03-23T03:02:35;25.35;;;6.78;;
64842;SDS011;51310;52.198;5.422;2024-03-23T03:05:02;28.55;;;6.47;;
64842;SDS011;51310;52.198;5.422;2024-03-23T03:07:30;20.30;;;7.03;;
64842;SDS011;51310;52.198;5.422;2024-03-23T03:09:57;21.00;;;6.18;;
64842;SDS011;51310;52.198;5.422;2024-03-23T03:12:23;28.85;;;6.32;;
64842;SDS011;51310;52.198;5.422;2024-03-23T03:14:49;22.55;;;5.57;;
64842;SDS011;51310;52.198;5.422;2024-03-23T03:17:14;24.50;;;7.25;;
64842;SDS011;51310;52.198;5.422;2024-03-23T03:19:40;20.77;;;6.53;;
64842;SDS011;51310;52.198;5.422;2024-03-23T03:22:06;15.65;;;5.25;;
64842;SDS011;51310;52.198;5.422;2024-03-23T03:24:32;25.33;;;6.05;;
64842;SDS011;51310;52.198;5.422;2024-03-23T03:26:58;27.48;;;5.93;;
64842;SDS011;51310;52.198;5.422;2024-03-23T03:29:24;16.13;;;4.88;;
64842;SDS011;51310;52.198;5.422;2024-03-23T03:31:50;21.52;;;5.75;;
64842;SDS011;51310;52.198;5.422;2024-03-23T03:34:16;25.15;;;5.43;;
64842;SDS011;51310;52.198;5.422;2024-03-23T03:36:42;14.23;;;5.15;;
64842;SDS011;51310;52.198;5.422;2024-03-23T03:39:08;18.13;;;5.88;;
64842;SDS011;51310;52.198;5.422;2024-03-23T03:41:34;25.63;;;5.82;;
64842;SDS011;51310;52.198;5.422;2024-03-23T03:43:59;19.33;;;6.70;;
64842;SDS011;51310;52.198;5.422;2024-03-23T03:46:27;17.25;;;4.32;;
64842;SDS011;51310;52.198;5.422;2024-03-23T03:48:56;18.33;;;4.47;;
64842;SDS011;51310;52.198;5.422;2024-03-23T03:51:22;19.73;;;5.50;;
64842;SDS011;51310;52.198;5.422;2024-03-23T03:53:48;27.00;;;5.32;;
64842;SDS011;51310;52.198;5.422;2024-03-23T03:56:14;26.10;;;5.80;;
64842;SDS011;51310;52.198;5.422;2024-03-23T03:58:40;14.65;;;3.92;;
64842;SDS011;51310;52.198;5.422;2024-03-23T04:01:06;25.60;;;4.95;;
64842;SDS011;51310;52.198;5.422;2024-03-23T04:03:31;27.30;;;4.70;;
64842;SDS011;51310;52.198;5.422;2024-03-23T04:05:57;26.42;;;4.68;;
64842;SDS011;51310;52.198;5.422;2024-03-23T04:08:23;23.27;;;4.60;;
64842;SDS011;51310;52.198;5.422;2024-03-23T04:10:49;17.40;;;4.45;;
64842;SDS011;51310;52.198;5.422;2024-03-23T04:13:15;23.25;;;5.03;;
64842;SDS011;51310;52.198;5.422;2024-03-23T04:15:41;12.90;;;3.72;;
64842;SDS011;51310;52.198;5.422;2024-03-23T04:18:07;16.92;;;5.90;;
64842;SDS011;51310;52.198;5.422;2024-03-23T04:20:36;18.77;;;3.92;;
64842;SDS011;51310;52.198;5.422;2024-03-23T04:23:02;19.35;;;3.95;;
64842;SDS011;51310;52.198;5.422;2024-03-23T04:25:28;26.77;;;3.17;;
64842;SDS011;51310;52.198;5.422;2024-03-23T04:27:54;10.50;;;3.05;;
64842;SDS011;51310;52.198;5.422;2024-03-23T04:30:20;14.05;;;2.40;;
64842;SDS011;51310;52.198;5.422;2024-03-23T04:32:46;15.50;;;3.25;;
64842;SDS011;51310;52.198;5.422;2024-03-23T04:35:12;7.72;;;2.63;;
64842;SDS011;51310;52.198;5.422;2024-03-23T04:37:38;10.80;;;3.28;;
64842;SDS011;51310;52.198;5.422;2024-03-23T04:40:07;26.35;;;4.47;;
64842;SDS011;51310;52.198;5.422;2024-03-23T04:42:34;14.65;;;4.35;;
64842;SDS011;51310;52.198;5.422;2024-03-23T04:45:00;17.25;;;3.53;;
64842;SDS011;51310;52.198;5.422;2024-03-23T04:47:26;21.73;;;3.58;;
64842;SDS011;51310;52.198;5.422;2024-03-23T04:49:52;10.50;;;3.78;;
64842;SDS011;51310;52.198;5.422;2024-03-23T04:52:18;11.68;;;3.00;;
64842;SDS011;51310;52.198;5.422;2024-03-23T04:54:44;8.35;;;3.50;;
64842;SDS011;51310;52.198;5.422;2024-03-23T04:57:10;23.60;;;3.15;;
64842;SDS011;51310;52.198;5.422;2024-03-23T04:59:36;12.02;;;2.75;;
64842;SDS011;51310;52.198;5.422;2024-03-23T05:02:02;15.35;;;3.30;;
64842;SDS011;51310;52.198;5.422;2024-03-23T05:04:28;14.77;;;2.70;;
64842;SDS011;51310;52.198;5.422;2024-03-23T05:06:54;12.20;;;3.83;;
64842;SDS011;51310;52.198;5.422;2024-03-23T05:09:20;19.50;;;3.00;;
64842;SDS011;51310;52.198;5.422;2024-03-23T05:11:46;22.65;;;4.63;;
64842;SDS011;51310;52.198;5.422;2024-03-23T05:14:13;19.52;;;3.50;;
64842;SDS011;51310;52.198;5.422;2024-03-23T05:16:39;17.27;;;3.40;;
64842;SDS011;51310;52.198;5.422;2024-03-23T05:19:05;21.02;;;3.92;;
64842;SDS011;51310;52.198;5.422;2024-03-23T05:21:32;21.08;;;3.25;;
64842;SDS011;51310;52.198;5.422;2024-03-23T05:23:57;19.42;;;3.67;;
64842;SDS011;51310;52.198;5.422;2024-03-23T05:26:23;9.52;;;3.22;;
64842;SDS011;51310;52.198;5.422;2024-03-23T05:28:49;14.63;;;3.58;;
64842;SDS011;51310;52.198;5.422;2024-03-23T05:31:25;6.70;;;2.20;;
64842;SDS011;51310;52.198;5.422;2024-03-23T05:33:56;13.00;;;3.28;;
64842;SDS011;51310;52.198;5.422;2024-03-23T05:36:22;18.23;;;2.97;;
64842;SDS011;51310;52.198;5.422;2024-03-23T05:38:51;13.05;;;3.40;;
64842;SDS011;51310;52.198;5.422;2024-03-23T05:41:17;19.42;;;3.65;;
64842;SDS011;51310;52.198;5.422;2024-03-23T05:43:42;21.52;;;3.08;;
64842;SDS011;51310;52.198;5.422;2024-03-23T05:46:09;11.25;;;2.17;;
64842;SDS011;51310;52.198;5.422;2024-03-23T05:48:35;10.45;;;2.88;;
64842;SDS011;51310;52.198;5.422;2024-03-23T05:51:01;16.65;;;2.28;;
64842;SDS011;51310;52.198;5.422;2024-03-23T05:53:27;14.90;;;3.33;;
64842;SDS011;51310;52.198;5.422;2024-03-23T05:56:04;8.85;;;1.98;;
64842;SDS011;51310;52.198;5.422;2024-03-23T05:58:31;13.82;;;2.72;;
64842;SDS011;51310;52.198;5.422;2024-03-23T06:00:57;19.55;;;3.35;;
64842;SDS011;51310;52.198;5.422;2024-03-23T06:03:26;10.80;;;2.53;;
64842;SDS011;51310;52.198;5.422;2024-03-23T06:05:53;14.50;;;3.60;;
64842;SDS011;51310;52.198;5.422;2024-03-23T06:08:20;10.68;;;3.47;;
64842;SDS011;51310;52.198;5.422;2024-03-23T06:10:47;10.63;;;2.63;;
64842;SDS011;51310;52.198;5.422;2024-03-23T06:13:15;15.27;;;2.00;;
64842;SDS011;51310;52.198;5.422;2024-03-23T06:15:42;19.45;;;2.35;;
64842;SDS011;51310;52.198;5.422;2024-03-23T06:18:08;11.48;;;1.98;;
64842;SDS011;51310;52.198;5.422;2024-03-23T06:20:34;10.60;;;2.42;;
64842;SDS011;51310;52.198;5.422;2024-03-23T06:23:02;11.75;;;2.83;;
64842;SDS011;51310;52.198;5.422;2024-03-23T06:25:28;12.77;;;2.58;;
64842;SDS011;51310;52.198;5.422;2024-03-23T06:27:55;17.38;;;2.90;;
64842;SDS011;51310;52.198;5.422;2024-03-23T06:30:23;16.25;;;1.98;;
64842;SDS011;51310;52.198;5.422;2024-03-23T06:32:49;15.75;;;3.53;;
64842;SDS011;51310;52.198;5.422;2024-03-23T06:35:15;10.88;;;2.50;;
64842;SDS011;51310;52.198;5.422;2024-03-23T06:37:41;15.15;;;2.45;;
64842;SDS011;51310;52.198;5.422;2024-03-23T06:40:07;11.90;;;2.22;;
64842;SDS011;51310;52.198;5.422;2024-03-23T06:42:34;14.90;;;2.25;;
64842;SDS011;51310;52.198;5.422;2024-03-23T06:45:02;12.07;;;2.35;;
64842;SDS011;51310;52.198;5.422;2024-03-23T06:47:30;15.10;;;2.65;;
64842;SDS011;51310;52.198;5.422;2024-03-23T06:49:56;18.58;;;3.33;;
64842;SDS011;51310;52.198;5.422;2024-03-23T06:52:22;17.88;;;2.33;;
64842;SDS011;51310;52.198;5.422;2024-03-23T06:54:48;7.60;;;2.45;;
64842;SDS011;51310;52.198;5.422;2024-03-23T06:57:14;7.18;;;2.85;;
64842;SDS011;51310;52.198;5.422;2024-03-23T06:59:40;9.93;;;2.70;;
64842;SDS011;51310;52.198;5.422;2024-03-23T07:02:05;9.15;;;2.22;;
64842;SDS011;51310;52.198;5.422;2024-03-23T07:04:33;9.70;;;2.63;;
64842;SDS011;51310;52.198;5.422;2024-03-23T07:07:00;6.60;;;2.67;;
64842;SDS011;51310;52.198;5.422;2024-03-23T07:09:27;5.60;;;3.05;;
64842;SDS011;51310;52.198;5.422;2024-03-23T07:11:54;10.80;;;2.97;;
64842;SDS011;51310;52.198;5.422;2024-03-23T07:14:22;9.60;;;3.40;;
64842;SDS011;51310;52.198;5.422;2024-03-23T07:16:49;9.45;;;4.28;;
64842;SDS011;51310;52.198;5.422;2024-03-23T07:19:16;16.10;;;3.35;;
64842;SDS011;51310;52.198;5.422;2024-03-23T07:21:43;13.18;;;3.17;;
64842;SDS011;51310;52.198;5.422;2024-03-23T07:24:10;17.60;;;3.50;;
64842;SDS011;51310;52.198;5.422;2024-03-23T07:26:36;12.30;;;3.28;;
64842;SDS011;51310;52.198;5.422;2024-03-23T07:29:03;25.98;;;4.35;;
64842;SDS011;51310;52.198;5.422;2024-03-23T07:31:30;16.15;;;3.88;;
64842;SDS011;51310;52.198;5.422;2024-03-23T07:33:56;12.43;;;3.97;;
64842;SDS011;51310;52.198;5.422;2024-03-23T07:36:22;6.50;;;3.30;;
64842;SDS011;51310;52.198;5.422;2024-03-23T07:38:48;9.40;;;3.35;;
64842;SDS011;51310;52.198;5.422;2024-03-23T07:41:14;15.27;;;4.20;;
64842;SDS011;51310;52.198;5.422;2024-03-23T07:43:45;8.75;;;3.58;;
64842;SDS011;51310;52.198;5.422;2024-03-23T07:46:14;10.90;;;3.45;;
64842;SDS011;51310;52.198;5.422;2024-03-23T07:48:41;8.50;;;2.55;;
64842;SDS011;51310;52.198;5.422;2024-03-23T07:51:08;17.27;;;3.50;;
64842;SDS011;51310;52.198;5.422;2024-03-23T07:53:37;12.68;;;2.92;;
64842;SDS011;51310;52.198;5.422;2024-03-23T07:56:06;11.95;;;4.10;;
64842;SDS011;51310;52.198;5.422;2024-03-23T07:58:36;13.90;;;3.15;;
64842;SDS011;51310;52.198;5.422;2024-03-23T08:01:07;11.95;;;2.60;;
64842;SDS011;51310;52.198;5.422;2024-03-23T08:03:39;10.15;;;2.80;;
64842;SDS011;51310;52.198;5.422;2024-03-23T08:06:11;13.68;;;3.70;;
64842;SDS011;51310;52.198;5.422;2024-03-23T08:08:44;7.07;;;2.70;;
64842;SDS011;51310;52.198;5.422;2024-03-23T08:11:13;8.10;;;1.70;;
64842;SDS011;51310;52.198;5.422;2024-03-23T08:13:41;6.28;;;1.65;;
64842;SDS011;51310;52.198;5.422;2024-03-23T08:16:10;7.85;;;1.73;;
64842;SDS011;51310;52.198;5.422;2024-03-23T08:18:39;17.63;;;3.13;;
64842;SDS011;51310;52.198;5.422;2024-03-23T08:21:05;12.52;;;2.50;;
64842;SDS011;51310;52.198;5.422;2024-03-23T08:23:32;11.25;;;1.55;;
64842;SDS011;51310;52.198;5.422;2024-03-23T08:26:04;8.07;;;1.90;;
64842;SDS011;51310;52.198;5.422;2024-03-23T08:28:35;4.93;;;1.98;;
64842;SDS011;51310;52.198;5.422;2024-03-23T08:31:07;11.35;;;2.53;;
64842;SDS011;51310;52.198;5.422;2024-03-23T08:33:37;6.78;;;1.92;;
64842;SDS011;51310;52.198;5.422;2024-03-23T08:36:05;20.45;;;2.50;;
64842;SDS011;51310;52.198;5.422;2024-03-23T08:38:33;12.18;;;1.98;;
64842;SDS011;51310;52.198;5.422;2024-03-23T08:43:29;22.75;;;1.83;;
64842;SDS011;51310;52.198;5.422;2024-03-23T08:46:08;7.63;;;2.42;;
64842;SDS011;51310;52.198;5.422;2024-03-23T08:48:37;6.38;;;2.13;;
64842;SDS011;51310;52.198;5.422;2024-03-23T08:51:08;11.63;;;1.65;;
64842;SDS011;51310;52.198;5.422;2024-03-23T08:53:36;7.45;;;1.35;;
64842;SDS011;51310;52.198;5.422;2024-03-23T08:56:03;9.55;;;1.73;;
64842;SDS011;51310;52.198;5.422;2024-03-23T08:58:31;10.00;;;1.60;;
64842;SDS011;51310;52.198;5.422;2024-03-23T09:01:03;9.73;;;1.73;;
64842;SDS011;51310;52.198;5.422;2024-03-23T09:03:36;11.50;;;1.75;;
64842;SDS011;51310;52.198;5.422;2024-03-23T09:06:12;10.43;;;1.52;;
64842;SDS011;51310;52.198;5.422;2024-03-23T09:08:40;10.30;;;2.58;;
64842;SDS011;51310;52.198;5.422;2024-03-23T09:11:07;6.97;;;1.55;;
64842;SDS011;51310;52.198;5.422;2024-03-23T09:13:36;6.07;;;1.60;;
64842;SDS011;51310;52.198;5.422;2024-03-23T09:16:04;6.72;;;1.33;;
64842;SDS011;51310;52.198;5.422;2024-03-23T09:18:32;9.07;;;1.42;;
64842;SDS011;51310;52.198;5.422;2024-03-23T09:21:01;5.80;;;1.58;;
64842;SDS011;51310;52.198;5.422;2024-03-23T09:23:29;4.95;;;1.30;;
64842;SDS011;51310;52.198;5.422;2024-03-23T09:25:55;6.60;;;1.58;;
64842;SDS011;51310;52.198;5.422;2024-03-23T09:28:20;7.60;;;1.52;;
64842;SDS011;51310;52.198;5.422;2024-03-23T09:30:47;12.52;;;1.52;;
64842;SDS011;51310;52.198;5.422;2024-03-23T09:33:13;7.00;;;1.58;;
64842;SDS011;51310;52.198;5.422;2024-03-23T09:35:39;4.45;;;1.30;;
64842;SDS011;51310;52.198;5.422;2024-03-23T09:38:09;5.20;;;1.27;;
64842;SDS011;51310;52.198;5.422;2024-03-23T09:40:41;7.20;;;1.10;;
64842;SDS011;51310;52.198;5.422;2024-03-23T09:43:08;2.85;;;0.85;;
64842;SDS011;51310;52.198;5.422;2024-03-23T09:45:39;6.63;;;1.67;;
64842;SDS011;51310;52.198;5.422;2024-03-23T09:48:06;7.68;;;1.65;;
64842;SDS011;51310;52.198;5.422;2024-03-23T09:50:37;11.65;;;1.45;;
64842;SDS011;51310;52.198;5.422;2024-03-23T09:53:09;6.90;;;1.70;;
64842;SDS011;51310;52.198;5.422;2024-03-23T09:55:39;15.85;;;2.42;;
64842;SDS011;51310;52.198;5.422;2024-03-23T09:58:12;4.65;;;1.67;;
64842;SDS011;51310;52.198;5.422;2024-03-23T10:00:42;17.95;;;2.58;;
64842;SDS011;51310;52.198;5.422;2024-03-23T10:03:10;6.25;;;1.77;;
64842;SDS011;51310;52.198;5.422;2024-03-23T10:05:36;9.32;;;1.40;;
64842;SDS011;51310;52.198;5.422;2024-03-23T10:10:41;11.25;;;1.98;;
64842;SDS011;51310;52.198;5.422;2024-03-23T10:13:07;5.50;;;2.17;;
64842;SDS011;51310;52.198;5.422;2024-03-23T10:15:34;11.45;;;1.77;;
64842;SDS011;51310;52.198;5.422;2024-03-23T10:18:17;6.10;;;2.08;;
64842;SDS011;51310;52.198;5.422;2024-03-23T10:23:39;13.40;;;1.27;;
64842;SDS011;51310;52.198;5.422;2024-03-23T10:28:51;8.73;;;1.10;;
64842;SDS011;51310;52.198;5.422;2024-03-23T10:31:29;8.95;;;2.58;;
64842;SDS011;51310;52.198;5.422;2024-03-23T10:33:56;8.90;;;1.38;;
64842;SDS011;51310;52.198;5.422;2024-03-23T10:36:23;8.93;;;1.63;;
64842;SDS011;51310;52.198;5.422;2024-03-23T10:38:54;7.43;;;1.80;;
64842;SDS011;51310;52.198;5.422;2024-03-23T10:41:20;8.90;;;1.75;;
64842;SDS011;51310;52.198;5.422;2024-03-23T10:43:47;11.30;;;1.20;;
64842;SDS011;51310;52.198;5.422;2024-03-23T10:46:15;13.75;;;1.55;;
64842;SDS011;51310;52.198;5.422;2024-03-23T10:48:41;6.55;;;1.52;;
64842;SDS011;51310;52.198;5.422;2024-03-23T10:51:08;9.02;;;1.55;;
64842;SDS011;51310;52.198;5.422;2024-03-23T10:53:37;4.07;;;1.38;;
64842;SDS011;51310;52.198;5.422;2024-03-23T10:56:03;15.38;;;2.50;;
64842;SDS011;51310;52.198;5.422;2024-03-23T10:58:42;8.52;;;1.58;;
64842;SDS011;51310;52.198;5.422;2024-03-23T11:01:14;6.45;;;2.10;;
64842;SDS011;51310;52.198;5.422;2024-03-23T11:03:44;15.60;;;1.40;;
64842;SDS011;51310;52.198;5.422;2024-03-23T11:06:33;4.88;;;1.42;;
64842;SDS011;51310;52.198;5.422;2024-03-23T11:09:03;11.80;;;1.83;;
64842;SDS011;51310;52.198;5.422;2024-03-23T11:17:37;7.88;;;1.63;;
64842;SDS011;51310;52.198;5.422;2024-03-23T11:20:04;8.75;;;2.38;;
64842;SDS011;51310;52.198;5.422;2024-03-23T11:25:12;10.30;;;1.67;;
64842;SDS011;51310;52.198;5.422;2024-03-23T11:27:47;8.80;;;1.13;;
64842;SDS011;51310;52.198;5.422;2024-03-23T11:30:17;7.95;;;1.60;;
64842;SDS011;51310;52.198;5.422;2024-03-23T11:32:49;11.90;;;2.22;;
64842;SDS011;51310;52.198;5.422;2024-03-23T11:35:33;6.17;;;1.73;;
64842;SDS011;51310;52.198;5.422;2024-03-23T11:40:46;9.43;;;1.80;;
64842;SDS011;51310;52.198;5.422;2024-03-23T11:43:16;13.10;;;1.67;;
64842;SDS011;51310;52.198;5.422;2024-03-23T11:48:14;5.95;;;2.13;;
64842;SDS011;51310;52.198;5.422;2024-03-23T11:50:47;8.02;;;1.65;;
64842;SDS011;51310;52.198;5.422;2024-03-23T11:53:22;8.82;;;1.70;;
64842;SDS011;51310;52.198;5.422;2024-03-23T11:58:24;10.68;;;1.67;;
64842;SDS011;51310;52.198;5.422;2024-03-23T12:00:59;12.30;;;2.63;;
64842;SDS011;51310;52.198;5.422;2024-03-23T12:03:28;16.00;;;1.50;;
64842;SDS011;51310;52.198;5.422;2024-03-23T12:05:56;5.18;;;2.28;;
64842;SDS011;51310;52.198;5.422;2024-03-23T12:08:31;4.28;;;1.40;;
64842;SDS011;51310;52.198;5.422;2024-03-23T12:13:41;6.33;;;1.70;;
64842;SDS011;51310;52.198;5.422;2024-03-23T12:16:18;6.47;;;1.27;;
64842;SDS011;51310;52.198;5.422;2024-03-23T12:18:46;8.60;;;1.60;;
64842;SDS011;51310;52.198;5.422;2024-03-23T12:21:14;6.53;;;1.33;;
64842;SDS011;51310;52.198;5.422;2024-03-23T12:23:41;12.90;;;1.60;;
64842;SDS011;51310;52.198;5.422;2024-03-23T12:26:09;7.18;;;1.88;;
64842;SDS011;51310;52.198;5.422;2024-03-23T12:28:37;5.22;;;1.42;;
64842;SDS011;51310;52.198;5.422;2024-03-23T12:31:03;7.15;;;1.60;;
64842;SDS011;51310;52.198;5.422;2024-03-23T12:33:30;8.85;;;1.25;;
64842;SDS011;51310;52.198;5.422;2024-03-23T12:35:56;8.55;;;1.50;;
64842;SDS011;51310;52.198;5.422;2024-03-23T12:38:22;9.63;;;1.50;;
64842;SDS011;51310;52.198;5.422;2024-03-23T12:40:49;8.25;;;1.63;;
64842;SDS011;51310;52.198;5.422;2024-03-23T12:43:18;5.13;;;1.25;;
64842;SDS011;51310;52.198;5.422;2024-03-23T12:45:47;3.15;;;1.38;;
64842;SDS011;51310;52.198;5.422;2024-03-23T12:48:14;8.45;;;1.52;;
64842;SDS011;51310;52.198;5.422;2024-03-23T12:50:41;7.80;;;1.50;;
64842;SDS011;51310;52.198;5.422;2024-03-23T12:53:07;7.13;;;1.58;;
64842;SDS011;51310;52.198;5.422;2024-03-23T12:55:36;8.68;;;1.48;;
64842;SDS011;51310;52.198;5.422;2024-03-23T12:58:02;11.18;;;2.25;;
64842;SDS011;51310;52.198;5.422;2024-03-23T13:00:29;9.50;;;1.38;;
64842;SDS011;51310;52.198;5.422;2024-03-23T13:02:55;5.20;;;1.05;;
64842;SDS011;51310;52.198;5.422;2024-03-23T13:05:21;8.80;;;1.25;;
64842;SDS011;51310;52.198;5.422;2024-03-23T13:07:47;3.08;;;1.00;;
64842;SDS011;51310;52.198;5.422;2024-03-23T13:10:13;16.13;;;2.47;;
64842;SDS011;51310;52.198;5.422;2024-03-23T13:12:39;5.40;;;1.20;;
64842;SDS011;51310;52.198;5.422;2024-03-23T13:15:07;6.57;;;1.90;;
64842;SDS011;51310;52.198;5.422;2024-03-23T13:17:34;2.65;;;0.80;;
64842;SDS011;51310;52.198;5.422;2024-03-23T13:20:00;7.80;;;1.35;;
64842;SDS011;51310;52.198;5.422;2024-03-23T13:22:25;5.57;;;1.10;;
64842;SDS011;51310;52.198;5.422;2024-03-23T13:24:51;3.28;;;1.75;;
64842;SDS011;51310;52.198;5.422;2024-03-23T13:27:17;4.95;;;1.92;;
64842;SDS011;51310;52.198;5.422;2024-03-23T13:29:43;5.30;;;1.40;;
64842;SDS011;51310;52.198;5.422;2024-03-23T13:32:11;6.28;;;1.52;;
64842;SDS011;51310;52.198;5.422;2024-03-23T13:34:37;8.13;;;2.22;;
64842;SDS011;51310;52.198;5.422;2024-03-23T13:37:03;8.23;;;1.70;;
64842;SDS011;51310;52.198;5.422;2024-03-23T13:39:30;1.90;;;0.85;;
64842;SDS011;51310;52.198;5.422;2024-03-23T13:41:56;2.25;;;0.60;;
64842;SDS011;51310;52.198;5.422;2024-03-23T13:44:21;3.72;;;1.10;;
64842;SDS011;51310;52.198;5.422;2024-03-23T13:46:48;3.08;;;1.08;;
64842;SDS011;51310;52.198;5.422;2024-03-23T13:49:26;10.10;;;1.27;;
64842;SDS011;51310;52.198;5.422;2024-03-23T13:51:56;5.30;;;1.48;;
64842;SDS011;51310;52.198;5.422;2024-03-23T13:54:23;7.88;;;1.35;;
64842;SDS011;51310;52.198;5.422;2024-03-23T13:56:53;10.20;;;1.60;;
64842;SDS011;51310;52.198;5.422;2024-03-23T13:59:22;15.68;;;1.77;;
64842;SDS011;51310;52.198;5.422;2024-03-23T14:01:48;8.63;;;1.08;;
64842;SDS011;51310;52.198;5.422;2024-03-23T14:04:15;6.70;;;1.10;;
64842;SDS011;51310;52.198;5.422;2024-03-23T14:06:42;6.78;;;1.15;;
64842;SDS011;51310;52.198;5.422;2024-03-23T14:09:11;4.38;;;0.95;;
64842;SDS011;51310;52.198;5.422;2024-03-23T14:11:39;5.82;;;1.20;;
64842;SDS011;51310;52.198;5.422;2024-03-23T14:14:09;4.78;;;1.35;;
64842;SDS011;51310;52.198;5.422;2024-03-23T14:16:35;6.50;;;1.20;;
64842;SDS011;51310;52.198;5.422;2024-03-23T14:19:01;7.50;;;1.60;;
64842;SDS011;51310;52.198;5.422;2024-03-23T14:21:28;4.90;;;1.20;;
64842;SDS011;51310;52.198;5.422;2024-03-23T14:23:54;14.20;;;1.23;;
64842;SDS011;51310;52.198;5.422;2024-03-23T14:26:22;12.45;;;1.52;;
64842;SDS011;51310;52.198;5.422;2024-03-23T14:28:49;16.85;;;2.20;;
64842;SDS011;51310;52.198;5.422;2024-03-23T14:31:15;23.50;;;3.25;;
64842;SDS011;51310;52.198;5.422;2024-03-23T14:33:41;6.15;;;2.25;;
64842;SDS011;51310;52.198;5.422;2024-03-23T14:36:11;14.68;;;2.28;;
64842;SDS011;51310;52.198;5.422;2024-03-23T14:38:42;12.05;;;1.45;;
64842;SDS011;51310;52.198;5.422;2024-03-23T14:41:15;6.50;;;0.95;;
64842;SDS011;51310;52.198;5.422;2024-03-23T14:43:41;7.53;;;1.42;;
64842;SDS011;51310;52.198;5.422;2024-03-23T14:46:13;5.65;;;1.25;;
64842;SDS011;51310;52.198;5.422;2024-03-23T14:48:42;8.68;;;1.27;;
64842;SDS011;51310;52.198;5.422;2024-03-23T14:51:09;8.60;;;1.85;;
64842;SDS011;51310;52.198;5.422;2024-03-23T14:53:37;6.43;;;1.50;;
64842;SDS011;51310;52.198;5.422;2024-03-23T14:56:06;8.60;;;1.42;;
64842;SDS011;51310;52.198;5.422;2024-03-23T14:58:35;6.40;;;1.95;;
64842;SDS011;51310;52.198;5.422;2024-03-23T15:01:04;16.75;;;1.50;;
64842;SDS011;51310;52.198;5.422;2024-03-23T15:03:34;7.03;;;1.02;;
64842;SDS011;51310;52.198;5.422;2024-03-23T15:06:04;5.70;;;1.65;;
64842;SDS011;51310;52.198;5.422;2024-03-23T15:08:31;6.50;;;1.20;;
64842;SDS011;51310;52.198;5.422;2024-03-23T15:11:00;4.60;;;1.25;;
64842;SDS011;51310;52.198;5.422;2024-03-23T15:13:33;4.38;;;1.13;;
64842;SDS011;51310;52.198;5.422;2024-03-23T15:16:05;10.15;;;1.50;;
64842;SDS011;51310;52.198;5.422;2024-03-23T15:18:34;2.90;;;1.08;;
64842;SDS011;51310;52.198;5.422;2024-03-23T15:21:01;8.88;;;1.65;;
64842;SDS011;51310;52.198;5.422;2024-03-23T15:23:31;9.32;;;1.20;;
64842;SDS011;51310;52.198;5.422;2024-03-23T15:25:58;4.22;;;1.25;;
64842;SDS011;51310;52.198;5.422;2024-03-23T15:28:26;2.00;;;0.90;;
64842;SDS011;51310;52.198;5.422;2024-03-23T15:31:06;5.20;;;1.40;;
64842;SDS011;51310;52.198;5.422;2024-03-23T15:33:36;4.93;;;1.20;;
64842;SDS011;51310;52.198;5.422;2024-03-23T15:36:04;11.18;;;1.38;;
64842;SDS011;51310;52.198;5.422;2024-03-23T15:38:31;5.28;;;1.17;;
64842;SDS011;51310;52.198;5.422;2024-03-23T15:40:58;11.13;;;1.75;;
64842;SDS011;51310;52.198;5.422;2024-03-23T15:43:24;8.00;;;1.67;;
64842;SDS011;51310;52.198;5.422;2024-03-23T15:45:54;6.55;;;1.55;;
64842;SDS011;51310;52.198;5.422;2024-03-23T15:48:24;4.95;;;1.15;;
64842;SDS011;51310;52.198;5.422;2024-03-23T15:50:54;5.97;;;1.00;;
64842;SDS011;51310;52.198;5.422;2024-03-23T15:53:23;10.98;;;1.42;;
64842;SDS011;51310;52.198;5.422;2024-03-23T15:58:28;7.50;;;2.28;;
64842;SDS011;51310;52.198;5.422;2024-03-23T16:03:34;5.00;;;0.90;;
64842;SDS011;51310;52.198;5.422;2024-03-23T16:06:02;7.95;;;0.98;;
64842;SDS011;51310;52.198;5.422;2024-03-23T16:08:32;10.65;;;1.88;;
64842;SDS011;51310;52.198;5.422;2024-03-23T16:11:05;11.82;;;1.25;;
64842;SDS011;51310;52.198;5.422;2024-03-23T16:13:33;7.55;;;2.17;;